Latest Weather Observations for Strathalbyn

IDS60801

Issued at 7:05 pm CST Friday 29 August 2014 (issued every 30 minutes, with the page automatically refreshed every 10 minutes)

About weather observations | Map of weather stations | Latest weather observations for SA | Other Formats
Station Details ID: 024580 Name: STRATHALBYN RACECOURSE Lat: -35.28 Lon: 138.89 Height: 58.0 m
Data from the previous 72 hours. | See also: Recent months at Strathalbyn
Date/Time
CST
Temp
°C
App
Temp
°C
Dew
Point
Rel
Hum
%
Delta-T
°C
Wind Press
QNH
hPa
Press
MSL
hPa
Rain
since 9 am
mm
Dir
 
Spd
km/h
Gust
km/h
Spd
kts
Gust
kts
29/07:00pm 13.7 11.6 8.3 70 2.7 SW 9 11 5 6 1025.3 - 0.0
29/06:30pm 14.4 12.5 9.0 70 2.7 SW 9 9 5 5 1025.2 - 0.0
29/06:00pm 17.5 16.0 9.2 58 4.3 SW 7 9 4 5 1025.0 1025.0 0.0
29/05:30pm 19.2 16.9 9.1 52 5.3 SSW 11 13 6 7 1024.9 - 0.0
29/05:00pm 19.6 17.4 9.5 52 5.4 S 11 13 6 7 1024.8 - 0.0
29/04:30pm 21.1 18.3 8.4 44 6.7 S 13 17 7 9 1024.8 - 0.0
29/04:00pm 22.1 18.1 5.1 33 8.4 SSE 15 19 8 10 1024.7 - 0.0
29/03:30pm 22.7 18.5 5.6 33 8.6 SSE 17 20 9 11 1024.8 - 0.0
29/03:00pm 23.5 19.5 8.4 38 8.0 SSE 19 22 10 12 1025.0 1025.0 0.0
29/02:30pm 23.8 20.9 8.2 37 8.3 SE 13 20 7 11 1025.1 - 0.0
29/02:00pm 24.0 21.3 3.9 27 9.9 NNE 7 11 4 6 1025.4 - 0.0
29/01:30pm 24.3 22.4 6.6 32 9.2 N 6 9 3 5 1025.7 - 0.0
29/01:00pm 24.0 21.8 5.4 30 9.4 N 6 9 3 5 1026.0 - 0.0
29/12:30pm 23.9 21.4 4.8 29 9.6 N 7 11 4 6 1026.5 - 0.0
29/12:00pm 23.5 21.7 7.2 35 8.4 NNE 6 11 3 6 1027.1 1027.1 0.0
29/11:30am 22.6 21.2 9.0 42 7.3 NNE 6 9 3 5 1027.5 - 0.0
29/11:00am 22.0 21.4 10.5 48 6.3 N 4 9 2 5 1027.9 - 0.0
29/10:30am 20.5 19.4 10.0 51 5.7 NNW 6 7 3 4 1028.1 - 0.0
29/10:00am 19.0 18.6 9.8 55 4.9 NNW 2 6 1 3 1028.2 - 0.0
29/09:30am 18.2 17.0 9.5 57 4.6 NNW 6 7 3 4 1028.3 - 0.0
29/09:00am 16.7 15.3 9.6 63 3.7 NNW 7 9 4 5 1028.5 1028.5 0.0
29/08:30am 15.1 12.8 7.4 60 3.8 NNW 9 11 5 6 1028.5 - 0.0
29/08:00am 12.1 10.1 7.2 72 2.4 NNW 7 9 4 5 1028.4 - 0.0
29/07:30am 10.4 7.0 6.0 74 2.0 NNW 13 15 7 8 1028.3 - 0.0
29/07:00am 9.2 5.3 5.4 77 1.7 NNW 15 17 8 9 1028.2 - 0.0
29/06:30am 8.9 4.9 5.1 77 1.7 NNW 15 17 8 9 1028.1 - 0.0
29/06:00am 9.0 5.1 5.4 78 1.6 NNW 15 17 8 9 1027.9 1027.9 0.0
29/05:30am 9.3 5.4 5.5 77 1.7 NNW 15 17 8 9 1027.9 - 0.0
29/05:00am 8.9 5.5 5.8 81 1.4 NNW 13 15 7 8 1027.7 - 0.0
29/04:30am 8.7 5.7 6.0 83 1.2 NNW 11 13 6 7 1027.8 - 0.0
29/04:00am 8.8 5.7 5.5 80 1.5 NNW 11 13 6 7 1027.7 - 0.0
29/03:30am 8.9 5.9 6.0 82 1.3 N 11 13 6 7 1027.8 - 0.0
29/03:00am 8.8 6.6 6.1 83 1.2 NNW 7 9 4 5 1027.8 1027.8 0.0
29/02:30am 9.3 7.2 6.0 80 1.5 NNW 6 9 3 5 1027.7 - 0.0
29/02:00am 10.6 6.6 6.7 77 1.8 NNW 17 17 9 9 1027.7 - 0.0
29/01:30am 10.3 7.1 6.8 79 1.7 NNW 13 17 7 9 1027.9 - 0.0
29/01:00am 10.0 6.4 6.7 80 1.6 NNW 15 17 8 9 1028.0 - 0.0
29/12:30am 10.3 6.7 6.8 79 1.7 NNW 15 17 8 9 1028.2 - 0.0
29/12:00am 10.0 6.4 6.9 81 1.5 NNW 15 17 8 9 1028.2 1028.2 0.0
 
Date/Time
CST
Temp
°C
App
Temp
°C
Dew
Point
Rel
Hum
%
Delta-T
°C
Wind Press
QNH
hPa
Press
MSL
hPa
Rain
since 9 am
mm
Dir
 
Spd
km/h
Gust
km/h
Spd
kts
Gust
kts
28/11:30pm 10.2 5.8 6.7 79 1.6 NNW 19 20 10 11 1028.3 - 0.0
28/11:00pm 10.3 6.4 7.0 80 1.6 NNW 17 20 9 11 1028.6 - 0.0
28/10:30pm 10.2 6.6 6.9 80 1.6 NW 15 17 8 9 1028.7 - 0.0
28/10:00pm 10.2 7.4 6.9 80 1.6 NW 11 13 6 7 1028.8 - 0.0
28/09:30pm 10.2 7.8 7.1 81 1.5 WNW 9 11 5 6 1028.7 - 0.0
28/09:00pm 10.9 8.2 7.4 79 1.7 WNW 11 13 6 7 1028.6 1028.7 0.0
28/08:30pm 11.1 9.2 7.4 78 1.8 WSW 7 7 4 4 1028.4 - 0.0
28/08:00pm 11.9 10.0 7.4 74 2.2 WSW 7 9 4 5 1028.2 - 0.0
28/07:30pm 13.9 11.7 7.7 66 3.1 WSW 9 13 5 7 1028.0 - 0.0
28/07:00pm 15.0 12.6 8.5 65 3.3 SW 11 13 6 7 1027.7 - 0.0
28/06:30pm 14.5 13.1 8.7 68 2.9 WSW 6 7 3 4 1027.2 - 0.0
28/06:00pm 15.4 15.3 9.3 67 3.1 CALM 0 0 0 0 1026.9 1026.9 0.0
28/05:30pm 19.3 17.7 8.9 51 5.5 WSW 7 9 4 5 1026.8 - 0.0
28/05:00pm 20.2 18.9 11.1 56 5.0 S 9 9 5 5 1026.7 - 0.0
28/04:30pm 21.2 19.1 8.1 43 6.8 SE 9 13 5 7 1026.6 - 0.0
28/04:00pm 21.8 19.1 9.0 44 6.8 SSE 13 17 7 9 1026.4 - 0.0
28/03:30pm 22.8 21.1 8.5 40 7.6 ENE 7 11 4 6 1026.3 - 0.0
28/03:00pm 23.6 22.4 8.1 37 8.2 NNE 4 9 2 5 1026.3 1026.3 0.0
28/02:30pm 23.0 21.2 7.1 36 8.3 ENE 6 11 3 6 1026.6 - 0.0
28/02:00pm 22.7 20.7 7.3 37 8.0 E 7 11 4 6 1026.7 - 0.0
28/01:30pm 22.6 20.6 7.2 37 8.0 ENE 7 11 4 6 1026.7 - 0.0
28/01:00pm 22.5 21.0 8.6 41 7.4 SE 6 9 3 5 1027.2 - 0.0
28/12:30pm 21.7 20.1 8.9 44 6.8 SSW 7 15 4 8 1027.7 - 0.0
28/12:00pm 21.8 20.2 8.0 41 7.2 ENE 6 7 3 4 1028.2 1028.2 0.0
28/11:30am 20.9 19.5 9.5 48 6.1 ENE 7 13 4 7 1028.5 - 0.0
28/11:00am 20.1 18.6 10.5 54 5.2 ENE 9 13 5 7 1028.7 - 0.0
28/10:30am 18.7 17.6 10.8 60 4.3 N 7 11 4 6 1028.6 - 0.0
28/10:00am 18.0 16.9 10.6 62 4.0 N 7 11 4 6 1028.7 - 0.0
28/09:30am 17.3 16.0 9.2 59 4.2 N 6 7 3 4 1028.8 - 0.0
28/09:00am 16.1 15.4 10.2 68 3.1 N 4 7 2 4 1028.9 1029.0 0.0
28/08:30am 13.6 12.8 9.5 76 2.1 N 4 6 2 3 1029.0 - 0.0
28/08:00am 11.5 9.6 7.6 77 1.9 N 7 9 4 5 1028.8 - 0.0
28/07:30am 8.4 6.1 5.7 83 1.2 N 7 9 4 5 1028.5 - 0.0
28/07:00am 7.6 4.8 5.1 84 1.1 N 9 11 5 6 1028.2 - 0.0
28/06:30am 7.1 4.6 4.6 84 1.1 N 7 9 4 5 1027.9 - 0.0
28/06:00am 8.2 4.6 5.1 81 1.4 NNW 13 15 7 8 1027.6 1027.6 0.0
28/05:30am 8.2 4.2 5.1 81 1.4 NNW 15 17 8 9 1027.5 - 0.0
28/05:00am 8.0 4.0 4.9 81 1.4 NNW 15 17 8 9 1027.5 - 0.0
28/04:30am 7.6 3.6 4.7 82 1.3 NNW 15 17 8 9 1027.5 - 0.0
28/04:00am 7.9 4.3 5.0 82 1.3 NNW 13 15 7 8 1027.4 - 0.0
28/03:30am 8.9 5.0 5.5 79 1.5 NNW 15 17 8 9 1027.5 - 0.0
28/03:00am 8.1 4.1 5.0 81 1.4 NNW 15 19 8 10 1027.5 1027.5 0.0
28/02:30am 8.5 4.6 5.3 80 1.4 NNW 15 17 8 9 1027.8 - 0.0
28/02:00am 8.4 4.1 5.3 81 1.4 NNW 17 19 9 10 1027.9 - 0.0
28/01:30am 8.1 4.2 5.4 83 1.2 NNW 15 17 8 9 1028.1 - 0.0
28/01:00am 8.0 4.1 5.3 83 1.2 NNW 15 17 8 9 1028.4 - 0.0
28/12:30am 8.2 5.0 5.3 82 1.3 NNW 11 13 6 7 1028.3 - 0.0
28/12:00am 8.4 4.9 5.5 82 1.3 NW 13 15 7 8 1028.5 1028.5 0.0
 
Date/Time
CST
Temp
°C
App
Temp
°C
Dew
Point
Rel
Hum
%
Delta-T
°C
Wind Press
QNH
hPa
Press
MSL
hPa
Rain
since 9 am
mm
Dir
 
Spd
km/h
Gust
km/h
Spd
kts
Gust
kts
27/11:30pm 8.3 5.6 5.4 82 1.3 NW 9 13 5 7 1028.5 - 0.0
27/11:00pm 8.6 5.5 5.5 81 1.4 NW 11 13 6 7 1028.6 - 0.0
27/10:30pm 9.2 5.8 6.1 81 1.4 NNW 13 13 7 7 1028.4 - 0.0
27/10:00pm 9.0 6.7 5.9 81 1.4 NW 7 9 4 5 1028.4 - 0.0
27/09:30pm 9.8 6.9 6.3 79 1.6 NW 11 13 6 7 1028.3 - 0.0
27/09:00pm 10.1 7.6 6.6 79 1.6 NW 9 11 5 6 1028.1 1028.1 0.0
27/08:30pm 9.8 6.9 6.5 80 1.5 W 11 11 6 6 1027.9 - 0.0
27/08:00pm 10.5 8.4 6.6 77 1.8 WSW 7 7 4 4 1027.7 - 0.0
27/07:30pm 12.9 10.1 7.1 68 2.8 SW 11 13 6 7 1027.4 - 0.0
27/07:00pm 13.1 10.4 7.5 69 2.7 WSW 11 13 6 7 1027.1 - 0.0
27/06:30pm 14.4 11.9 8.1 66 3.2 WSW 11 13 6 7 1026.8 - 0.0
27/06:00pm 15.2 12.7 8.0 62 3.6 SSW 11 15 6 8 1026.5 1026.5 0.0
27/05:30pm 16.5 14.8 8.2 58 4.2 SE 7 11 4 6 1026.1 - 0.0
27/05:00pm 18.5 16.4 8.2 51 5.3 SE 9 11 5 6 1025.8 - 0.0
27/04:30pm 19.2 16.7 8.2 49 5.7 SE 11 13 6 7 1025.5 - 0.0
27/04:00pm 19.6 16.6 7.7 46 6.1 SE 13 15 7 8 1025.4 - 0.0
27/03:30pm 19.7 16.9 8.7 49 5.8 SSE 13 17 7 9 1025.5 - 0.0
27/03:00pm 20.6 18.3 4.6 35 7.8 NE 6 7 3 4 1025.5 1025.5 0.0
27/02:30pm 20.7 18.5 6.3 39 7.3 NE 7 11 4 6 1025.4 - 0.0
27/02:00pm 20.1 17.3 5.0 37 7.4 N 9 15 5 8 1025.4 - 0.0
27/01:30pm 20.5 17.8 5.7 38 7.4 NE 9 15 5 8 1025.7 - 0.0
27/01:00pm 20.3 18.0 5.9 39 7.2 N 7 13 4 7 1026.0 - 0.0
27/12:30pm 20.0 17.6 7.1 43 6.6 NNE 9 15 5 8 1026.5 - 0.0
27/12:00pm 19.5 17.2 5.9 41 6.7 ENE 7 13 4 7 1027.0 1027.0 0.0
27/11:30am 18.8 16.9 6.6 45 6.1 SSE 6 9 3 5 1027.3 - 0.0
27/11:00am 18.5 16.6 7.6 49 5.5 SE 7 11 4 6 1027.7 - 0.0
27/10:30am 17.8 16.7 6.7 48 5.5 ENE 2 6 1 3 1027.8 - 0.0
27/10:00am 17.1 14.4 7.5 53 4.8 NE 11 15 6 8 1027.6 - 0.0
27/09:30am 15.8 13.3 8.3 61 3.8 NE 11 15 6 8 1027.5 - 0.0
27/09:00am 15.0 14.3 8.5 65 3.3 N 2 7 1 4 1027.5 1027.5 0.2
27/08:30am 12.7 11.1 8.0 73 2.3 N 6 7 3 4 1027.1 - 0.2
27/08:00am 10.0 8.0 7.3 83 1.3 N 7 11 4 6 1027.0 - 0.2
27/07:30am 7.2 4.4 5.3 88 0.8 N 9 13 5 7 1026.6 - 0.2
27/07:00am 5.6 2.9 3.8 88 0.8 N 7 11 4 6 1026.4 - 0.2
27/06:30am 6.3 2.2 4.6 89 0.7 NNW 15 17 8 9 1026.1 - 0.2
27/06:00am 5.4 1.9 3.7 89 0.7 N 11 13 6 7 1026.2 1026.2 0.2
27/05:30am 5.6 1.8 3.8 88 0.8 NNW 13 15 7 8 1026.1 - 0.2
27/05:00am 5.0 3.1 3.0 87 0.8 NW 2 9 1 5 1026.1 - 0.2
27/04:30am 6.0 2.2 4.0 87 0.9 NW 13 17 7 9 1025.7 - 0.2
27/04:00am 5.8 2.5 4.3 90 0.6 NNW 11 15 6 8 1025.5 - 0.2
27/03:30am 5.5 3.0 4.0 90 0.6 NNW 6 7 3 4 1025.8 - 0.2
27/03:00am 5.9 3.0 4.4 90 0.6 NNW 9 11 5 6 1025.8 1025.8 0.0
27/02:30am 5.9 2.9 4.2 89 0.7 NNW 9 11 5 6 1025.8 - 0.0
27/02:00am 6.4 2.8 4.9 90 0.7 NNW 13 13 7 7 1025.8 - 0.0
27/01:30am 6.2 2.5 4.7 90 0.7 NNW 13 17 7 9 1025.6 - 0.0
27/01:00am 5.8 2.4 4.1 89 0.7 WSW 11 13 6 7 1025.9 - 0.0
27/12:30am 5.8 3.2 4.1 89 0.7 WSW 7 9 4 5 1025.9 - 0.0
27/12:00am 6.4 2.7 4.7 89 0.7 WSW 13 13 7 7 1026.0 1026.0 0.0
 
Date/Time
CST
Temp
°C
App
Temp
°C
Dew
Point
Rel
Hum
%
Delta-T
°C
Wind Press
QNH
hPa
Press
MSL
hPa
Rain
since 9 am
mm
Dir
 
Spd
km/h
Gust
km/h
Spd
kts
Gust
kts
26/11:30pm 6.4 3.5 4.6 88 0.8 WSW 9 11 5 6 1026.1 - 0.0
26/11:00pm 6.6 3.8 5.1 90 0.7 WSW 9 11 5 6 1026.1 - 0.0
26/10:30pm 6.8 4.0 5.0 88 0.8 WSW 9 13 5 7 1026.1 - 0.0
26/10:00pm 6.9 4.6 4.9 87 0.9 WSW 6 9 3 5 1026.2 - 0.0
26/09:30pm 7.0 4.6 5.2 88 0.8 WSW 7 9 4 5 1026.1 - 0.0
26/09:00pm 7.9 7.0 6.2 89 0.8 CALM 0 0 0 0 1026.0 1026.0 0.0
26/08:30pm 7.3 5.1 5.1 86 1.0 WSW 6 7 3 4 1025.9 - 0.0
26/08:00pm 8.7 6.8 6.5 86 1.0 WSW 6 9 3 5 1025.5 - 0.0
26/07:30pm 8.7 6.7 6.2 84 1.1 WSW 6 7 3 4 1025.3 - 0.0

Other Formats:

Comma delimited format used in spreadsheet applications
http://www.bom.gov.au/fwo/IDS60801/IDS60801.94814.axf

JavaScript Object Notation format (JSON) in row-major order
http://www.bom.gov.au/fwo/IDS60801/IDS60801.94814.json